createdAt,value
2023-05-10T00:00:34.360Z,97558.91
2023-05-10T00:03:37.174Z,97557.81
2023-05-10T00:06:40.132Z,97560.03
2023-05-10T00:09:42.849Z,97565.75
2023-05-10T00:12:45.612Z,97567.50
2023-05-10T00:15:49.694Z,97564.16
2023-05-10T00:18:52.481Z,97563.53
2023-05-10T00:21:55.183Z,97564.78
2023-05-10T00:24:57.808Z,97563.34
2023-05-10T00:28:02.271Z,97567.50
2023-05-10T00:31:06.476Z,97556.81
2023-05-10T00:34:09.239Z,97553.16
2023-05-10T00:37:11.928Z,97555.72
2023-05-10T00:40:15.454Z,97561.91
2023-05-10T00:43:18.471Z,97562.22
2023-05-10T00:46:22.957Z,97573.81
2023-05-10T00:49:25.724Z,97581.25
2023-05-10T00:52:28.627Z,97581.25
2023-05-10T00:55:31.972Z,97578.72
2023-05-10T00:58:34.785Z,97586.03
2023-05-10T01:01:39.929Z,97598.09
2023-05-10T01:04:42.886Z,97590.44
2023-05-10T01:07:45.681Z,97598.38
2023-05-10T01:10:50.110Z,97591.22
2023-05-10T01:13:57.406Z,97589.00
2023-05-10T01:17:03.221Z,97590.91
2023-05-10T01:20:09.025Z,97585.66
2023-05-10T01:23:30.611Z,97594.19
2023-05-10T01:27:03.999Z,97596.25
2023-05-10T01:30:37.527Z,97595.00
2023-05-10T01:33:48.327Z,97597.22
2023-05-10T01:36:55.481Z,97599.91
2023-05-10T01:40:04.921Z,97607.84
2023-05-10T01:43:28.483Z,97597.00
2023-05-10T01:46:36.904Z,97597.81
2023-05-10T01:49:45.424Z,97607.31
2023-05-10T01:52:53.998Z,97614.16
2023-05-10T01:55:58.271Z,97613.84
2023-05-10T01:59:03.036Z,97612.06
2023-05-10T02:02:07.580Z,97617.78
2023-05-10T02:05:14.887Z,97619.78
2023-05-10T02:08:20.225Z,97622.78
2023-05-10T02:11:23.737Z,97622.63
2023-05-10T02:14:28.500Z,97612.94
2023-05-10T02:17:33.774Z,97625.94
2023-05-10T02:20:39.484Z,97623.97
2023-05-10T02:23:42.624Z,97624.78
2023-05-10T02:26:47.298Z,97626.06
2023-05-10T02:29:51.959Z,97635.63
2023-05-10T02:32:55.422Z,97635.13
2023-05-10T02:36:00.299Z,97649.22
2023-05-10T02:39:04.390Z,97650.34
2023-05-10T02:42:07.892Z,97656.53
2023-05-10T02:45:14.606Z,97655.09
2023-05-10T02:48:18.057Z,97654.50
2023-05-10T02:51:27.132Z,97645.78
2023-05-10T02:54:34.536Z,97642.75
2023-05-10T02:57:42.949Z,97646.91
2023-05-10T03:00:46.226Z,97645.28
2023-05-10T03:03:48.950Z,97644.81
2023-05-10T03:06:53.116Z,97653.22
2023-05-10T03:09:55.859Z,97652.41
2023-05-10T03:13:08.086Z,97660.81
2023-05-10T03:16:16.734Z,97660.38
2023-05-10T03:19:26.263Z,97665.16
2023-05-10T03:22:34.274Z,97669.44
2023-05-10T03:25:37.216Z,97664.34
2023-05-10T03:28:41.539Z,97671.03
2023-05-10T03:31:44.564Z,97664.06
2023-05-10T03:34:47.267Z,97666.16
2023-05-10T03:37:51.494Z,97666.31
2023-05-10T03:40:54.295Z,97676.94
2023-05-10T03:43:56.972Z,97667.84
2023-05-10T03:46:59.731Z,97673.88
2023-05-10T03:50:03.426Z,97670.06
2023-05-10T03:53:07.696Z,97670.84
2023-05-10T03:56:10.418Z,97679.84
2023-05-10T03:59:13.153Z,97682.06
2023-05-10T04:02:16.091Z,97677.66
2023-05-10T04:05:18.839Z,97672.88
2023-05-10T04:08:23.001Z,97678.72
2023-05-10T04:11:25.805Z,97683.78
2023-05-10T04:14:28.636Z,97681.09
2023-05-10T04:17:32.216Z,97680.31
2023-05-10T04:20:35.237Z,97687.59
2023-05-10T04:23:39.291Z,97681.28
2023-05-10T04:26:41.966Z,97684.00
2023-05-10T04:29:45.305Z,97691.94
2023-05-10T04:32:48.082Z,97687.22
2023-05-10T04:35:50.849Z,97691.50
2023-05-10T04:38:54.904Z,97694.50
2023-05-10T04:41:57.764Z,97688.81
2023-05-10T04:45:00.380Z,97693.63
2023-05-10T04:48:03.184Z,97698.38
2023-05-10T04:51:07.425Z,97703.50
2023-05-10T04:54:11.462Z,97710.28
2023-05-10T04:57:14.188Z,97701.56
2023-05-10T05:00:18.155Z,97705.25
2023-05-10T05:03:21.097Z,97714.31
2023-05-10T05:06:25.708Z,97707.69
2023-05-10T05:09:29.810Z,97712.66
2023-05-10T05:12:32.778Z,97718.03
2023-05-10T05:15:35.614Z,97705.81
2023-05-10T05:18:38.408Z,97711.56
2023-05-10T05:21:41.974Z,97723.03
2023-05-10T05:24:46.412Z,97723.19
2023-05-10T05:27:49.204Z,97717.38
2023-05-10T05:30:51.894Z,97714.81
2023-05-10T05:33:54.589Z,97723.25
2023-05-10T05:36:57.350Z,97728.31
2023-05-10T05:40:04.058Z,97732.31
2023-05-10T05:43:06.768Z,97726.28
2023-05-10T05:46:09.438Z,97728.53
2023-05-10T05:49:13.224Z,97733.31
2023-05-10T05:52:15.963Z,97733.31
2023-05-10T05:55:20.167Z,97738.59
2023-05-10T05:58:23.124Z,97742.22
2023-05-10T06:01:25.794Z,97745.25
2023-05-10T06:04:28.765Z,97743.03
2023-05-10T06:07:31.507Z,97739.41
2023-05-10T06:10:35.582Z,97747.34
2023-05-10T06:13:38.305Z,97749.28
2023-05-10T06:16:41.551Z,97751.66
2023-05-10T06:19:44.323Z,97758.63
2023-05-10T06:22:47.038Z,97755.59
2023-05-10T06:25:51.135Z,97760.72
2023-05-10T06:28:53.805Z,97762.31
2023-05-10T06:31:56.561Z,97756.09
2023-05-10T06:34:59.359Z,97765.66
2023-05-10T06:38:02.035Z,97765.50
2023-05-10T06:41:06.471Z,97763.28
2023-05-10T06:44:09.515Z,97765.81
2023-05-10T06:47:12.287Z,97764.56
2023-05-10T06:50:15.016Z,97756.03
2023-05-10T06:53:17.812Z,97769.56
2023-05-10T06:56:22.435Z,97766.72
2023-05-10T06:59:25.456Z,97774.66
2023-05-10T07:02:28.401Z,97769.13
2023-05-10T07:05:31.328Z,97767.53
2023-05-10T07:08:34.319Z,97765.94
2023-05-10T07:11:38.724Z,97764.69
2023-05-10T07:14:41.550Z,97775.63
2023-05-10T07:17:45.898Z,97779.50
2023-05-10T07:20:48.919Z,97779.50
2023-05-10T07:23:52.462Z,97787.59
2023-05-10T07:26:56.576Z,97784.09
2023-05-10T07:29:59.744Z,97781.72
2023-05-10T07:33:02.477Z,97778.22
2023-05-10T07:36:05.292Z,97788.38
2023-05-10T07:39:08.413Z,97787.09
2023-05-10T07:42:12.668Z,97790.78
2023-05-10T07:45:16.091Z,97790.28
2023-05-10T07:48:19.157Z,97790.16
2023-05-10T07:51:22.099Z,97796.81
2023-05-10T07:54:24.945Z,97793.00
2023-05-10T07:57:29.171Z,97808.28
2023-05-10T08:00:31.958Z,97804.94
2023-05-10T08:03:34.921Z,97804.47
2023-05-10T08:06:37.764Z,97803.50
2023-05-10T08:09:40.570Z,97801.28
2023-05-10T08:12:44.570Z,97798.09
2023-05-10T08:15:47.832Z,97802.88
2023-05-10T08:18:51.729Z,97813.53
2023-05-10T08:21:56.382Z,97798.09
2023-05-10T08:24:59.156Z,97804.63
2023-05-10T08:28:03.215Z,97810.81
2023-05-10T08:31:07.423Z,97819.25
2023-05-10T08:34:10.311Z,97817.97
2023-05-10T08:37:14.454Z,97818.16
2023-05-10T08:40:17.576Z,97818.16
2023-05-10T08:43:21.753Z,97815.59
2023-05-10T08:46:25.274Z,97818.16
2023-05-10T08:49:29.469Z,97817.19
2023-05-10T08:52:34.943Z,97818.34
2023-05-10T08:55:39.579Z,97825.00
2023-05-10T08:58:43.911Z,97825.81
2023-05-10T09:01:49.254Z,97830.56
2023-05-10T09:04:52.680Z,97835.66
2023-05-10T09:07:55.682Z,97838.03
2023-05-10T09:10:58.626Z,97834.97
2023-05-10T09:14:03.597Z,97843.41
2023-05-10T09:17:06.895Z,97840.69
2023-05-10T09:20:10.189Z,97839.72
2023-05-10T09:23:13.141Z,97854.09
2023-05-10T09:26:15.819Z,97846.59
2023-05-10T09:29:20.590Z,97852.47
2023-05-10T09:32:23.346Z,97842.72
2023-05-10T09:35:29.778Z,97840.97
2023-05-10T09:38:47.443Z,97847.81
2023-05-10T09:41:50.398Z,97858.97
2023-05-10T09:44:54.439Z,97848.81
2023-05-10T09:47:57.589Z,97855.03
2023-05-10T09:51:00.461Z,97856.19
2023-05-10T09:54:13.828Z,97855.09
2023-05-10T09:57:22.975Z,97860.97
2023-05-10T10:00:28.291Z,97864.31
2023-05-10T10:03:32.030Z,97858.25
2023-05-10T10:06:39.432Z,97860.16
2023-05-10T10:09:42.459Z,97858.28
2023-05-10T10:12:46.043Z,97863.22
2023-05-10T10:15:52.225Z,97866.25
2023-05-10T10:18:55.254Z,97859.88
2023-05-10T10:21:58.237Z,97861.13
2023-05-10T10:25:01.680Z,97852.66
2023-05-10T10:28:18.383Z,97849.59
2023-05-10T10:31:31.016Z,97848.28
2023-05-10T10:34:34.409Z,97852.94
2023-05-10T10:37:46.245Z,97862.03
2023-05-10T10:40:49.485Z,97855.91
2023-05-10T10:44:35.871Z,97859.06
2023-05-10T10:47:38.931Z,97857.94
2023-05-10T10:50:47.924Z,97860.63
2023-05-10T10:53:50.790Z,97864.25
2023-05-10T10:57:14.882Z,97856.91
2023-05-10T11:00:38.129Z,97862.25
2023-05-10T11:03:41.072Z,97866.28
2023-05-10T11:06:44.429Z,97867.25
2023-05-10T11:09:48.741Z,97873.56
2023-05-10T11:12:56.547Z,97882.91
2023-05-10T11:16:11.352Z,97869.94
2023-05-10T11:19:15.521Z,97874.28
2023-05-10T11:22:19.203Z,97871.72
2023-05-10T11:25:22.357Z,97868.13
2023-05-10T11:28:25.322Z,97855.84
2023-05-10T11:31:30.891Z,97855.84
2023-05-10T11:34:34.991Z,97863.44
2023-05-10T11:37:38.254Z,97869.03
2023-05-10T11:40:42.664Z,97867.66
2023-05-10T11:43:49.981Z,97867.94
2023-05-10T11:46:54.143Z,97867.66
2023-05-10T11:49:56.942Z,97878.91
2023-05-10T11:53:00.664Z,97877.06
2023-05-10T11:56:07.402Z,97873.84
2023-05-10T11:59:10.368Z,97878.03
2023-05-10T12:02:15.276Z,97876.44
2023-05-10T12:05:18.827Z,97877.41
2023-05-10T12:08:24.062Z,97881.28
2023-05-10T12:11:28.081Z,97888.47
2023-05-10T12:14:34.286Z,97889.25
2023-05-10T12:17:40.747Z,97891.97
2023-05-10T12:20:45.281Z,97896.72
2023-05-10T12:23:49.054Z,97904.19
2023-05-10T12:26:52.455Z,97891.41
2023-05-10T12:29:55.743Z,97901.94
2023-05-10T12:33:04.491Z,97902.72
2023-05-10T12:36:07.966Z,97897.63
2023-05-10T12:39:11.166Z,97904.81
2023-05-10T12:42:14.166Z,97904.94
2023-05-10T12:45:16.962Z,97908.13
2023-05-10T12:48:21.487Z,97907.59
2023-05-10T12:51:24.262Z,97907.47
2023-05-10T12:54:27.031Z,97910.63
2023-05-10T12:57:29.858Z,97907.28
2023-05-10T13:00:32.572Z,97904.59
2023-05-10T13:03:36.666Z,97911.47
2023-05-10T13:06:39.385Z,97901.41
2023-05-10T13:09:42.151Z,97904.00
2023-05-10T13:12:44.861Z,97897.00
2023-05-10T13:15:47.546Z,97908.31
2023-05-10T13:18:51.846Z,97903.41
2023-05-10T13:21:54.605Z,97897.88
2023-05-10T13:24:57.308Z,97897.25
2023-05-10T13:28:00.082Z,97902.81
2023-05-10T13:31:02.830Z,97901.66
2023-05-10T13:34:07.386Z,97897.19
2023-05-10T13:37:10.353Z,97896.25
2023-05-10T13:40:13.408Z,97894.81
2023-05-10T13:43:16.286Z,97888.72
2023-05-10T13:46:19.793Z,97888.06
2023-05-10T13:49:23.965Z,97889.66
2023-05-10T13:52:26.739Z,97887.91
2023-05-10T13:55:29.704Z,97881.88
2023-05-10T13:58:32.456Z,97882.97
2023-05-10T14:01:35.336Z,97881.41
2023-05-10T14:04:39.383Z,97876.94
2023-05-10T14:07:42.169Z,97878.22
2023-05-10T14:10:44.938Z,97885.81
2023-05-10T14:13:47.857Z,97876.44
2023-05-10T14:16:50.593Z,97872.25
2023-05-10T14:19:55.001Z,97887.19
2023-05-10T14:22:57.742Z,97876.03
2023-05-10T14:26:00.581Z,97881.13
2023-05-10T14:29:03.498Z,97884.25
2023-05-10T14:32:06.793Z,97884.13
2023-05-10T14:35:12.961Z,97873.00
2023-05-10T14:38:16.733Z,97875.84
2023-05-10T14:41:19.844Z,97880.19
2023-05-10T14:44:22.620Z,97880.47
2023-05-10T14:47:25.546Z,97879.22
2023-05-10T14:50:36.054Z,97876.03
2023-05-10T14:53:39.552Z,97877.00
2023-05-10T14:56:42.730Z,97876.28
2023-05-10T14:59:45.453Z,97873.75
2023-05-10T15:02:49.225Z,97872.81
2023-05-10T15:05:54.127Z,97871.56
2023-05-10T15:08:56.957Z,97878.69
2023-05-10T15:11:59.699Z,97867.84
2023-05-10T15:15:02.417Z,97864.03
2023-05-10T15:18:05.557Z,97868.84
2023-05-10T15:21:09.940Z,97864.25
2023-05-10T15:24:12.639Z,97866.16
2023-05-10T15:27:15.325Z,97872.56
2023-05-10T15:30:18.012Z,97878.44
2023-05-10T15:33:20.641Z,97877.81
2023-05-10T15:36:24.699Z,97873.19
2023-05-10T15:39:27.379Z,97877.47
2023-05-10T15:42:30.853Z,97877.69
2023-05-10T15:45:35.234Z,97873.69
2023-05-10T15:48:40.234Z,97882.78
2023-05-10T15:51:44.236Z,97884.06
2023-05-10T15:54:47.125Z,97889.03
2023-05-10T15:57:50.372Z,97884.41
2023-05-10T16:00:53.110Z,97887.13
2023-05-10T16:03:55.923Z,97879.75
2023-05-10T16:06:59.946Z,97885.97
2023-05-10T16:10:04.086Z,97896.22
2023-05-10T16:13:06.959Z,97892.06
2023-05-10T16:16:09.847Z,97902.28
2023-05-10T16:19:12.668Z,97890.97
2023-05-10T16:22:16.997Z,97898.34
2023-05-10T16:25:20.047Z,97895.97
2023-05-10T16:28:22.941Z,97902.34
2023-05-10T16:31:25.802Z,97906.16
2023-05-10T16:34:28.793Z,97902.53
2023-05-10T16:37:32.993Z,97898.53
2023-05-10T16:40:35.755Z,97905.72
2023-05-10T16:43:38.445Z,97899.81
2023-05-10T16:46:41.121Z,97905.72
2023-05-10T16:49:43.797Z,97904.13
2023-05-10T16:52:47.946Z,97900.81
2023-05-10T16:55:51.050Z,97910.03
2023-05-10T16:58:54.055Z,97910.69
2023-05-10T17:01:56.804Z,97917.38
2023-05-10T17:04:59.603Z,97910.69
2023-05-10T17:08:03.758Z,97912.75
2023-05-10T17:11:06.591Z,97918.97
2023-05-10T17:14:10.161Z,97917.84
2023-05-10T17:17:12.985Z,97919.94
2023-05-10T17:20:15.642Z,97927.72
2023-05-10T17:23:19.714Z,97922.13
2023-05-10T17:26:22.410Z,97920.72
2023-05-10T17:29:25.048Z,97925.00
2023-05-10T17:32:27.837Z,97921.81
2023-05-10T17:35:31.545Z,97928.16
2023-05-10T17:38:35.872Z,97923.84
2023-05-10T17:41:38.549Z,97922.88
2023-05-10T17:44:41.346Z,97925.16
2023-05-10T17:47:44.156Z,97924.78
2023-05-10T17:50:47.013Z,97936.25
2023-05-10T17:53:51.048Z,97935.13
2023-05-10T17:56:53.836Z,97936.22
2023-05-10T17:59:56.596Z,97937.78
2023-05-10T18:02:59.453Z,97936.03
2023-05-10T18:06:02.359Z,97944.47
2023-05-10T18:09:07.260Z,97942.81
2023-05-10T18:12:10.036Z,97941.50
2023-05-10T18:15:12.730Z,97941.66
2023-05-10T18:18:15.802Z,97945.75
2023-05-10T18:21:18.851Z,97936.84
2023-05-10T18:24:30.456Z,97944.47
2023-05-10T18:27:40.196Z,97951.59
2023-05-10T18:30:42.959Z,97953.16
2023-05-10T18:33:45.960Z,97950.72
2023-05-10T18:36:48.775Z,97952.03
2023-05-10T18:39:53.261Z,97952.63
2023-05-10T18:42:56.091Z,97953.72
2023-05-10T18:45:58.769Z,97963.38
2023-05-10T18:49:02.590Z,97965.91
2023-05-10T18:52:05.243Z,97963.94
2023-05-10T18:55:10.195Z,97959.97
2023-05-10T18:58:12.802Z,97967.69
2023-05-10T19:01:15.519Z,97970.53
2023-05-10T19:04:18.187Z,97968.41
2023-05-10T19:07:20.830Z,97970.34
2023-05-10T19:10:25.069Z,97974.75
2023-05-10T19:13:28.854Z,97974.75
2023-05-10T19:16:31.567Z,97984.56
2023-05-10T19:19:35.319Z,97983.91
2023-05-10T19:22:54.326Z,97978.28
2023-05-10T19:26:02.420Z,97980.94
2023-05-10T19:29:05.045Z,97989.44
2023-05-10T19:32:07.642Z,97979.25
2023-05-10T19:35:13.188Z,97987.75
2023-05-10T19:38:16.308Z,97986.28
2023-05-10T19:41:20.308Z,97996.06
2023-05-10T19:44:23.088Z,97994.81
2023-05-10T19:47:26.247Z,97990.63
2023-05-10T19:50:28.914Z,97999.91
2023-05-10T19:53:32.309Z,97995.09
2023-05-10T19:56:36.407Z,97995.91
2023-05-10T19:59:39.018Z,97986.50
2023-05-10T20:02:41.605Z,98002.41
2023-05-10T20:05:44.267Z,97994.59
2023-05-10T20:08:46.917Z,97988.22
2023-05-10T20:11:51.242Z,97988.00
2023-05-10T20:14:53.869Z,97995.41
2023-05-10T20:17:56.656Z,97999.50
2023-05-10T20:21:00.660Z,97990.31
2023-05-10T20:24:03.339Z,97990.00
2023-05-10T20:27:07.605Z,97992.13
2023-05-10T20:30:11.293Z,97987.31
2023-05-10T20:33:15.539Z,97986.31
2023-05-10T20:36:18.191Z,97991.19
2023-05-10T20:39:20.759Z,97990.69
2023-05-10T20:42:24.929Z,97993.41
2023-05-10T20:45:27.593Z,97993.69
2023-05-10T20:48:30.260Z,97995.31
2023-05-10T20:51:33.335Z,97991.00
2023-05-10T20:54:35.984Z,97988.00
2023-05-10T20:57:40.115Z,97992.91
2023-05-10T21:00:42.702Z,97985.03
2023-05-10T21:03:45.423Z,97986.81
2023-05-10T21:06:48.015Z,97989.19
2023-05-10T21:09:50.630Z,97986.81
2023-05-10T21:12:54.872Z,97984.28
2023-05-10T21:15:58.206Z,97978.31
2023-05-10T21:19:00.923Z,97989.41
2023-05-10T21:22:03.648Z,97986.22
2023-05-10T21:25:07.242Z,97986.22
2023-05-10T21:28:11.513Z,97986.72
2023-05-10T21:31:14.199Z,97985.00
2023-05-10T21:34:17.918Z,97980.22
2023-05-10T21:37:20.521Z,97988.09
2023-05-10T21:40:23.957Z,97986.22
2023-05-10T21:43:27.919Z,97983.03
2023-05-10T21:46:30.957Z,97982.41
2023-05-10T21:49:33.580Z,97985.09
2023-05-10T21:52:36.243Z,97990.31
2023-05-10T21:55:38.917Z,97984.72
2023-05-10T21:58:42.929Z,97988.81
2023-05-10T22:01:45.630Z,97985.31
2023-05-10T22:04:48.451Z,97989.19
2023-05-10T22:07:51.124Z,97987.41
2023-05-10T22:10:53.728Z,97983.91
2023-05-10T22:13:57.719Z,97982.09
2023-05-10T22:17:00.439Z,97979.41
2023-05-10T22:20:03.681Z,97987.81
2023-05-10T22:23:06.654Z,97986.53
2023-05-10T22:26:09.430Z,97990.31
2023-05-10T22:29:13.461Z,97987.72
2023-05-10T22:32:16.081Z,97991.19
2023-05-10T22:35:18.687Z,97994.00
2023-05-10T22:38:21.493Z,97988.91
2023-05-10T22:41:24.090Z,97981.72
2023-05-10T22:44:28.118Z,97988.28
2023-05-10T22:47:30.815Z,97991.78
2023-05-10T22:50:33.437Z,97979.69
2023-05-10T22:53:36.100Z,97983.31
2023-05-10T22:56:38.702Z,97986.06
2023-05-10T22:59:43.353Z,97989.06
2023-05-10T23:02:46.097Z,97988.38
2023-05-10T23:05:48.776Z,97986.47
2023-05-10T23:08:51.996Z,97989.97
2023-05-10T23:11:54.759Z,97994.63
2023-05-10T23:14:58.796Z,97990.13
2023-05-10T23:18:01.551Z,97994.22
2023-05-10T23:21:04.236Z,97998.09
2023-05-10T23:24:08.443Z,97995.28
2023-05-10T23:27:11.317Z,97995.66
2023-05-10T23:30:15.650Z,98001.56
2023-05-10T23:33:18.395Z,97997.19
2023-05-10T23:36:21.028Z,97995.06
2023-05-10T23:39:23.671Z,97995.56
2023-05-10T23:42:26.295Z,97996.38
2023-05-10T23:45:30.479Z,98001.47
2023-05-10T23:48:33.103Z,97997.97
2023-05-10T23:51:35.706Z,97999.56
2023-05-10T23:54:38.329Z,97992.50
2023-05-10T23:57:40.928Z,97990.59
